Time;durP1;ratioP1;P1;durP2;ratioP2;P2;SDS_P1;SDS_P2;PMS_P1;PMS_P2;Temp;Humidity;BMP_temperature;BMP_pressure;BME280_temperature;BME280_humidity;BME280_pressure;Samples;Min_cycle;Max_cycle;Signal;HPM_P1;HPM_P2
2022/09/28 00:01:15;;;;;;;7.60;4.57;;;;;;;13.46;100.00;98449.63;6230761;28;20053;-75
2022/09/28 00:04:17;;;;;;;9.57;4.82;;;;;;;13.41;100.00;98442.25;6230930;28;20115;-75
2022/09/28 00:07:17;;;;;;;8.55;4.45;;;;;;;13.41;100.00;98426.53;6230997;28;20474;-75
2022/09/28 00:10:21;;;;;;;9.85;4.82;;;;;;;13.38;100.00;98426.81;6248489;28;20045;-76
2022/09/28 00:13:23;;;;;;;7.03;4.72;;;;;;;13.41;100.00;98429.16;6230651;28;20045;-75
2022/09/28 00:16:27;;;;;;;8.98;5.05;;;;;;;13.42;100.00;98435.19;6230748;28;20119;-75
2022/09/28 00:19:28;;;;;;;7.57;4.28;;;;;;;13.18;100.00;98441.84;6248323;28;20087;-75
2022/09/28 00:22:31;;;;;;;6.38;3.50;;;;;;;13.18;100.00;98449.69;6248059;28;20041;-75
2022/09/28 00:25:35;;;;;;;4.03;2.42;;;;;;;13.03;100.00;98431.06;6230357;28;20386;-75
2022/09/28 00:28:36;;;;;;;2.97;2.22;;;;;;;13.02;100.00;98436.44;6247950;28;20049;-76
2022/09/28 00:31:37;;;;;;;3.45;2.20;;;;;;;12.78;100.00;98429.97;6247971;28;20042;-76
2022/09/28 00:34:41;;;;;;;3.15;1.90;;;;;;;12.78;100.00;98429.16;6230180;28;20509;-76
2022/09/28 00:37:42;;;;;;;3.03;1.52;;;;;;;12.69;100.00;98423.03;6247860;28;20038;-76
2022/09/28 00:40:42;;;;;;;1.38;1.05;;;;;;;12.57;100.00;98427.63;6247539;28;20095;-75
2022/09/28 00:43:43;;;;;;;1.40;1.10;;;;;;;12.73;100.00;98426.19;6247764;28;20038;-75
2022/09/28 00:46:44;;;;;;;1.52;1.13;;;;;;;12.69;100.00;98444.78;6229892;28;20145;-75
2022/09/28 00:49:50;;;;;;;2.20;1.50;;;;;;;12.55;100.00;98452.28;6229952;28;20045;-75
2022/09/28 00:53:08;;;;;;;1.75;1.23;;;;;;;12.52;100.00;98435.09;6247296;28;20064;-75
2022/09/28 00:56:17;;;;;;;2.10;1.17;;;;;;;12.55;100.00;98436.59;6229838;28;20045;-75
2022/09/28 00:59:18;;;;;;;2.45;1.63;;;;;;;12.58;100.00;98437.13;6229719;28;20046;-75
2022/09/28 01:02:20;;;;;;;6.45;1.45;;;;;;;12.60;100.00;98439.59;6247321;28;20099;-75
2022/09/28 01:05:23;;;;;;;5.10;1.20;;;;;;;12.58;100.00;98439.75;6229933;28;20041;-75
2022/09/28 01:08:27;;;;;;;2.30;1.57;;;;;;;12.64;100.00;98436.56;6229587;28;20122;-76
2022/09/28 01:11:31;;;;;;;2.00;1.17;;;;;;;12.50;100.00;98437.84;6228946;28;20279;-75
2022/09/28 01:14:32;;;;;;;3.33;1.50;;;;;;;12.57;100.00;98443.31;6212849;28;20049;-75
2022/09/28 01:17:55;;;;;;;1.15;1.05;;;;;;;12.43;100.00;98460.31;6229572;28;20382;-75
2022/09/28 01:21:04;;;;;;;1.25;1.10;;;;;;;12.45;100.00;98437.44;6246932;28;20033;-76
2022/09/28 01:24:17;;;;;;;1.95;1.23;;;;;;;12.39;100.00;98447.66;6246965;28;20038;-75
2022/09/28 01:27:28;;;;;;;;;;;;;;;12.35;100.00;98447.13;6229663;28;20038;-76
2022/09/28 01:30:35;;;;;;;1.25;0.80;;;;;;;12.28;100.00;98443.47;6229440;28;19924;-78
2022/09/28 01:33:38;;;;;;;1.65;1.02;;;;;;;12.28;100.00;98451.31;6246830;28;20168;-79
2022/09/28 01:36:47;;;;;;;5.38;1.13;;;;;;;12.18;100.00;98463.59;6229327;28;20045;-79
2022/09/28 01:39:53;;;;;;;0.98;0.80;;;;;;;12.15;100.00;98461.25;6229081;28;20045;-79
2022/09/28 01:43:01;;;;;;;1.00;0.90;;;;;;;12.04;100.00;98470.91;6229202;28;20398;-78
2022/09/28 01:46:15;;;;;;;1.10;0.95;;;;;;;12.03;100.00;98471.88;6228884;28;20057;-79
2022/09/28 01:49:21;;;;;;;1.08;0.90;;;;;;;11.97;100.00;98477.66;6246715;28;20049;-79
2022/09/28 01:52:29;;;;;;;2.28;1.50;;;;;;;11.87;100.00;98461.16;6246375;28;20064;-78
2022/09/28 01:55:34;;;;;;;3.80;0.95;;;;;;;11.88;100.00;98465.41;6229115;28;20512;-79
2022/09/28 01:58:39;;;;;;;1.13;1.02;;;;;;;11.75;100.00;98467.50;6228874;28;20048;-78
2022/09/28 02:01:47;;;;;;;2.72;1.10;;;;;;;11.84;100.00;98479.72;6246590;28;20164;-79
2022/09/28 02:04:59;;;;;;;1.23;1.10;;;;;;;11.76;100.00;98477.00;6246671;28;20065;-78
2022/09/28 02:08:21;;;;;;;1.20;1.10;;;;;;;11.75;100.00;98483.19;6246533;28;20041;-76
2022/09/28 02:11:22;;;;;;;1.10;1.00;;;;;;;11.69;100.00;98488.00;6246454;28;20092;-75
2022/09/28 02:14:24;;;;;;;2.72;1.25;;;;;;;11.72;100.00;98492.13;6228927;28;20033;-76
2022/09/28 02:17:25;;;;;;;2.20;1.02;;;;;;;11.61;100.00;98502.69;6246315;28;20049;-75
2022/09/28 02:20:30;;;;;;;2.15;1.33;;;;;;;11.64;100.00;98497.22;6228724;28;20050;-76
2022/09/28 02:23:35;;;;;;;2.15;1.67;;;;;;;11.54;100.00;98509.44;6214990;28;20050;-75
2022/09/28 02:26:40;;;;;;;2.67;1.80;;;;;;;11.61;100.00;98516.63;6233134;28;20037;-75
2022/09/28 02:29:41;;;;;;;9.90;2.05;;;;;;;11.60;100.00;98521.97;6250748;28;20099;-78
2022/09/28 02:32:48;;;;;;;1.65;1.23;;;;;;;11.57;100.00;98519.63;6250729;28;20041;-78
2022/09/28 02:35:49;;;;;;;3.67;1.77;;;;;;;11.52;100.00;98540.09;6250624;28;20045;-75
2022/09/28 02:38:50;;;;;;;2.13;1.58;;;;;;;11.33;100.00;98530.47;6232869;28;20064;-76
2022/09/28 02:42:00;;;;;;;7.03;2.72;;;;;;;11.32;100.00;98531.41;6232974;28;20129;-79
2022/09/28 02:45:44;;;;;;;3.95;2.53;;;;;;;11.42;100.00;98537.47;6232786;28;20045;-79
2022/09/28 02:48:57;;;;;;;7.95;2.00;;;;;;;11.42;100.00;98534.88;6250442;28;20056;-79
2022/09/28 02:52:14;;;;;;;2.53;1.42;;;;;;;11.49;100.00;98541.22;6232424;28;20494;-79
2022/09/28 02:55:31;;;;;;;1.50;1.40;;;;;;;11.38;100.00;98546.53;6216243;28;20061;-78
2022/09/28 02:59:09;;;;;;;4.75;1.80;;;;;;;11.44;100.00;98559.88;6232527;28;20384;-78
2022/09/28 03:02:24;;;;;;;2.60;1.70;;;;;;;11.45;100.00;98576.41;6232501;28;20046;-75
2022/09/28 03:05:43;;;;;;;3.10;2.08;;;;;;;11.31;100.00;98558.50;6249894;28;20053;-76
2022/09/28 03:08:58;;;;;;;2.28;1.90;;;;;;;11.39;100.00;98566.50;6249901;28;20050;-75
2022/09/28 03:12:06;;;;;;;2.00;1.25;;;;;;;11.44;100.00;98559.88;6232249;28;20386;-75
2022/09/28 03:15:19;;;;;;;1.92;1.58;;;;;;;11.47;100.00;98564.84;6232098;28;20037;-75
2022/09/28 03:18:19;;;;;;;2.60;1.85;;;;;;;11.52;100.00;98563.63;6232015;28;20453;-75
2022/09/28 03:21:20;;;;;;;3.30;1.90;;;;;;;11.49;100.00;98573.38;6249598;28;20042;-76
2022/09/28 03:24:21;;;;;;;2.10;1.60;;;;;;;11.45;100.00;98558.94;6231871;28;20038;-75
2022/09/28 03:27:21;;;;;;;2.75;1.70;;;;;;;11.39;100.00;98569.09;6231741;28;20069;-75
2022/09/28 03:30:22;;;;;;;2.40;1.58;;;;;;;11.46;100.00;98573.63;6249460;28;20083;-78
2022/09/28 03:33:23;;;;;;;2.67;1.83;;;;;;;11.50;100.00;98580.22;6215179;28;20493;-78
2022/09/28 03:36:24;;;;;;;3.97;1.98;;;;;;;11.43;100.00;98573.91;6248796;28;20409;-78
2022/09/28 03:39:25;;;;;;;2.63;1.77;;;;;;;11.30;100.00;98560.28;6249236;28;20069;-75
2022/09/28 03:42:25;;;;;;;2.03;1.70;;;;;;;11.37;100.00;98571.84;6247800;28;20081;-75
2022/09/28 03:45:26;;;;;;;2.35;2.00;;;;;;;11.38;100.00;98570.06;6214921;28;20076;-75
2022/09/28 03:48:29;;;;;;;2.13;1.58;;;;;;;11.28;100.00;98594.38;6231450;28;20047;-75
2022/09/28 03:51:30;;;;;;;1.63;1.40;;;;;;;11.24;100.00;98593.00;6231166;28;20054;-75
2022/09/28 03:54:33;;;;;;;2.08;1.77;;;;;;;11.19;100.00;98594.34;6231117;28;20045;-75
2022/09/28 03:57:34;;;;;;;3.50;1.75;;;;;;;11.18;100.00;98585.69;6248711;28;20038;-76
2022/09/28 04:00:38;;;;;;;3.08;1.83;;;;;;;11.23;100.00;98588.72;6231067;28;20040;-75
2022/09/28 04:03:38;;;;;;;2.97;1.92;;;;;;;11.19;100.00;98589.94;6230992;28;20404;-76
2022/09/28 04:06:39;;;;;;;3.88;1.70;;;;;;;11.19;100.00;98592.53;6230858;28;20045;-75
2022/09/28 04:09:43;;;;;;;2.33;1.58;;;;;;;11.12;100.00;98586.22;6230837;28;20088;-76
2022/09/28 04:12:44;;;;;;;2.38;1.58;;;;;;;11.13;100.00;98597.47;6248461;28;20373;-75
2022/09/28 04:15:52;;;;;;;1.70;1.38;;;;;;;11.10;100.00;98598.56;6248171;28;20047;-75
2022/09/28 04:18:53;;;;;;;2.55;1.67;;;;;;;10.94;100.00;98599.06;6248099;28;20052;-76
2022/09/28 04:21:56;;;;;;;2.42;1.60;;;;;;;10.96;100.00;98596.31;6248151;28;20477;-75
2022/09/28 04:24:57;;;;;;;2.17;1.58;;;;;;;10.91;100.00;98593.28;6230566;28;20061;-78
2022/09/28 04:31:22;;;;;;;2.28;1.63;;;;;;;10.82;100.00;98613.16;6248023;28;20045;-78
2022/09/28 04:34:22;;;;;;;2.75;1.70;;;;;;;10.79;100.00;98613.41;6230356;28;20071;-75
2022/09/28 04:37:23;;;;;;;1.20;1.10;;;;;;;10.76;100.00;98604.06;6247817;28;20484;-75
2022/09/28 04:40:24;;;;;;;1.40;1.20;;;;;;;10.78;100.00;98603.94;6229916;28;20095;-75
2022/09/28 04:43:25;;;;;;;1.65;1.20;;;;;;;10.75;100.00;98599.81;6247747;28;20044;-75
2022/09/28 04:46:26;;;;;;;3.42;1.60;;;;;;;10.69;100.00;98601.16;6229170;28;20048;-76
2022/09/28 04:49:26;;;;;;;1.67;1.35;;;;;;;10.68;100.00;98596.03;6247724;28;20049;-78
2022/09/28 04:52:27;;;;;;;1.67;1.30;;;;;;;10.55;100.00;98591.03;6229662;28;20062;-79
2022/09/28 04:55:31;;;;;;;3.05;1.42;;;;;;;10.56;100.00;98597.91;6229877;28;20041;-79
2022/09/28 04:58:34;;;;;;;1.80;1.63;;;;;;;10.69;100.00;98621.19;6229798;28;20048;-79
2022/09/28 05:01:35;;;;;;;2.10;1.05;;;;;;;10.70;100.00;98628.06;6229762;28;20041;-79
2022/09/28 05:04:36;;;;;;;2.30;1.47;;;;;;;10.61;100.00;98621.81;6247287;28;20409;-79
2022/09/28 05:07:37;;;;;;;1.50;1.30;;;;;;;10.58;100.00;98636.91;6229554;28;20045;-78
2022/09/28 05:10:39;;;;;;;1.90;1.35;;;;;;;10.55;100.00;98652.81;6247389;28;20120;-78
2022/09/28 05:13:44;;;;;;;1.63;1.13;;;;;;;10.72;100.00;98660.06;6247271;28;20041;-78
2022/09/28 05:16:44;;;;;;;1.27;1.17;;;;;;;10.67;100.00;98660.44;6229484;28;20125;-78
2022/09/28 05:19:45;;;;;;;1.08;0.98;;;;;;;10.83;100.00;98672.19;6247598;28;20041;-78
2022/09/28 05:22:46;;;;;;;2.13;1.10;;;;;;;10.93;100.00;98667.84;6247059;28;20103;-78
2022/09/28 05:25:47;;;;;;;1.40;1.10;;;;;;;11.03;100.00;98666.13;6231124;28;20115;-78
2022/09/28 05:28:48;;;;;;;1.52;1.20;;;;;;;11.07;100.00;98671.91;6253848;28;20481;-78
2022/09/28 05:31:48;;;;;;;1.50;1.10;;;;;;;11.07;100.00;98666.69;6271778;28;20119;-78
2022/09/28 05:34:49;;;;;;;4.18;1.10;;;;;;;11.07;100.00;98671.91;6242300;28;20116;-75
2022/09/28 05:37:50;;;;;;;0.93;0.85;;;;;;;11.12;100.00;98672.38;6247042;28;20174;-76
2022/09/28 05:40:51;;;;;;;2.35;1.27;;;;;;;11.07;100.00;98666.69;6252572;28;20069;-75
2022/09/28 05:43:53;;;;;;;1.65;1.30;;;;;;;10.99;100.00;98675.16;6270297;28;20068;-75
2022/09/28 05:46:54;;;;;;;1.55;0.98;;;;;;;11.09;100.00;98672.59;6253340;28;20405;-76
2022/09/28 05:49:55;;;;;;;1.58;1.15;;;;;;;11.07;100.00;98677.13;6271202;28;20055;-75
2022/09/28 05:52:57;;;;;;;1.08;0.70;;;;;;;11.08;100.00;98678.81;6270911;28;20088;-75
2022/09/28 05:55:58;;;;;;;1.05;0.95;;;;;;;11.10;100.00;98674.28;6253403;28;20048;-75
2022/09/28 05:58:59;;;;;;;1.15;1.00;;;;;;;11.26;100.00;98677.22;6274867;28;20068;-78
2022/09/28 06:02:00;;;;;;;0.82;0.80;;;;;;;11.23;100.00;98681.88;6258122;28;20060;-78
2022/09/28 06:05:01;;;;;;;1.85;1.08;;;;;;;11.41;100.00;98701.19;6258337;28;20123;-78
2022/09/28 06:08:05;;;;;;;2.25;1.08;;;;;;;11.49;100.00;98705.78;6258061;28;20390;-78
2022/09/28 06:11:06;;;;;;;1.75;0.90;;;;;;;11.59;100.00;98709.25;6258314;28;20469;-78
2022/09/28 06:14:07;;;;;;;0.85;0.82;;;;;;;11.61;100.00;98704.72;6258057;28;20099;-78
2022/09/28 06:17:08;;;;;;;1.92;0.90;;;;;;;11.70;100.00;98700.47;6258069;28;20045;-78
2022/09/28 06:20:10;;;;;;;1.13;1.02;;;;;;;11.63;100.00;98713.25;6275773;28;20485;-78
2022/09/28 06:23:12;;;;;;;1.15;0.80;;;;;;;11.50;100.00;98705.59;6275631;28;20451;-78
2022/09/28 06:26:13;;;;;;;1.70;0.98;;;;;;;11.47;100.00;98703.28;6257890;28;20041;-78
2022/09/28 06:29:17;;;;;;;0.80;0.73;;;;;;;11.36;100.00;98705.16;6275443;28;20076;-78
2022/09/28 06:32:18;;;;;;;1.55;1.00;;;;;;;11.47;100.00;98711.13;6275503;28;20068;-77
2022/09/28 06:35:19;;;;;;;1.45;0.88;;;;;;;11.59;100.00;98705.78;6272361;28;20090;-75
2022/09/28 06:38:20;;;;;;;1.10;0.80;;;;;;;11.62;100.00;98700.31;6243281;28;20038;-75
2022/09/28 06:41:23;;;;;;;1.30;1.00;;;;;;;11.66;100.00;98714.75;6249198;28;20063;-78
2022/09/28 06:44:24;;;;;;;0.85;0.68;;;;;;;11.78;100.00;98715.47;6275092;28;20546;-78
2022/09/28 06:47:27;;;;;;;1.00;0.80;;;;;;;11.87;100.00;98715.47;6257238;28;20052;-78
2022/09/28 06:50:31;;;;;;;1.25;0.82;;;;;;;11.95;100.00;98721.88;6275136;28;20400;-77
2022/09/28 06:53:32;;;;;;;1.17;0.82;;;;;;;12.11;100.00;98727.41;6240403;28;20155;-78
2022/09/28 06:56:32;;;;;;;1.02;0.77;;;;;;;12.27;100.00;98729.47;6256209;28;20046;-78
2022/09/28 06:59:33;;;;;;;0.75;0.60;;;;;;;12.35;100.00;98731.41;6232711;28;20048;-78
2022/09/28 07:02:34;;;;;;;1.15;0.68;;;;;;;12.31;100.00;98730.84;6216009;28;20140;-77
2022/09/28 07:05:40;;;;;;;0.73;0.73;;;;;;;12.30;100.00;98739.66;6250114;28;20048;-78
2022/09/28 07:08:42;;;;;;;0.73;0.65;;;;;;;12.37;100.00;98732.09;6243749;28;20049;-77
2022/09/28 07:11:43;;;;;;;0.70;0.70;;;;;;;12.50;100.00;98711.72;6256834;28;20053;-77
2022/09/28 07:14:44;;;;;;;0.50;0.50;;;;;;;12.64;100.00;98713.06;6256896;28;20045;-77
2022/09/28 07:17:45;;;;;;;1.38;0.80;;;;;;;13.12;100.00;98727.06;6256800;28;20615;-77
2022/09/28 07:20:46;;;;;;;0.80;0.70;;;;;;;13.00;100.00;98735.06;6256693;28;20037;-77
2022/09/28 07:23:48;;;;;;;0.95;0.70;;;;;;;12.95;100.00;98739.91;6274422;28;20045;-77
2022/09/28 07:26:52;;;;;;;3.83;0.40;;;;;;;12.87;100.00;98731.94;6274538;28;20041;-75
2022/09/28 07:29:53;;;;;;;0.40;0.40;;;;;;;12.67;100.00;98745.03;6256042;28;20049;-74
2022/09/28 07:32:54;;;;;;;1.70;0.63;;;;;;;12.62;100.00;98742.00;6239719;28;20060;-75
2022/09/28 07:35:55;;;;;;;0.50;0.50;;;;;;;12.84;100.00;98751.34;6273906;28;20049;-75
2022/09/28 07:38:56;;;;;;;0.82;0.65;;;;;;;12.93;100.00;98751.47;6273723;28;20041;-75
2022/09/28 07:41:57;;;;;;;0.60;0.60;;;;;;;12.83;100.00;98741.03;6233545;28;20049;-75
2022/09/28 07:44:58;;;;;;;0.80;0.55;;;;;;;13.04;100.00;98739.06;6232175;28;20464;-75
2022/09/28 07:47:59;;;;;;;0.40;0.40;;;;;;;13.21;100.00;98749.75;6273495;28;20049;-75
2022/09/28 07:50:59;;;;;;;0.68;0.45;;;;;;;13.07;100.00;98751.88;6247464;28;20051;-76
2022/09/28 07:54:00;;;;;;;0.32;0.32;;;;;;;12.98;100.00;98760.56;6269386;28;20564;-78
2022/09/28 07:57:01;;;;;;;1.27;0.60;;;;;;;13.35;100.00;98766.84;6255829;28;20477;-77
2022/09/28 08:00:05;;;;;;;0.65;0.63;;;;;;;13.67;98.88;98780.41;6254042;28;20417;-76
2022/09/28 08:03:06;;;;;;;3.25;0.50;;;;;;;13.83;98.14;98778.94;6248857;28;20144;-77
2022/09/28 08:06:10;;;;;;;0.50;0.50;;;;;;;13.87;100.00;98791.59;6231014;28;20486;-78
2022/09/28 08:09:10;;;;;;;1.25;0.43;;;;;;;13.53;100.00;98800.97;6230984;28;20041;-76
2022/09/28 08:12:12;;;;;;;0.73;0.73;;;;;;;13.67;98.27;98798.75;6246695;28;20041;-77
2022/09/28 08:15:13;;;;;;;0.40;0.40;;;;;;;14.25;97.75;98805.50;6272015;28;20515;-77
2022/09/28 08:18:16;;;;;;;0.40;0.40;;;;;;;14.07;92.77;98792.34;6255167;28;20041;-76
2022/09/28 08:21:56;;;;;;;0.50;0.40;;;;;;;14.45;90.72;98800.94;6255238;28;20052;-77
2022/09/28 08:24:50;;;;;;;0.45;0.40;;;;;;;14.51;91.58;98810.81;6268916;28;20092;-77
2022/09/28 08:27:55;;;;;;;0.43;0.40;;;;;;;14.81;91.15;98808.84;6272769;28;20481;-77
2022/09/28 08:30:58;;;;;;;0.47;0.32;;;;;;;14.74;86.05;98813.03;6255023;28;20102;-78
2022/09/28 08:33:59;;;;;;;4.03;0.50;;;;;;;14.97;85.48;98809.94;6235636;28;20045;-77
2022/09/28 08:37:00;;;;;;;0.45;0.45;;;;;;;15.06;91.20;98807.25;6263244;28;20058;-77
2022/09/28 08:40:00;;;;;;;0.28;0.28;;;;;;;15.20;90.20;98811.13;6247627;28;20512;-77
2022/09/28 08:43:14;;;;;;;0.70;0.47;;;;;;;15.36;88.52;98810.44;6230198;28;20076;-77
2022/09/28 08:46:18;;;;;;;0.47;0.43;;;;;;;15.42;85.97;98807.19;6263081;28;20053;-77
2022/09/28 08:49:36;;;;;;;1.30;0.70;;;;;;;15.58;85.57;98816.94;6241698;28;20052;-77
2022/09/28 08:52:38;;;;;;;0.30;0.22;;;;;;;15.67;83.12;98820.47;6251320;28;20128;-75
2022/09/28 08:55:44;;;;;;;0.60;0.28;;;;;;;15.83;80.79;98806.59;6278462;28;20174;-77
2022/09/28 08:58:50;;;;;;;0.20;0.20;;;;;;;15.89;77.97;98812.03;6238081;28;20056;-77
2022/09/28 09:02:02;;;;;;;0.52;0.32;;;;;;;16.12;72.73;98790.41;6242508;28;20723;-76
2022/09/28 09:05:06;;;;;;;0.10;0.10;;;;;;;16.51;75.46;98781.94;6214184;28;20053;-77
2022/09/28 09:08:52;;;;;;;0.25;0.25;;;;;;;16.69;61.02;98773.91;6230244;28;20409;-77
2022/09/28 09:12:17;;;;;;;0.10;0.10;;;;;;;16.67;63.22;98771.44;6230572;28;20120;-77
2022/09/28 09:15:23;;;;;;;0.10;0.10;;;;;;;16.84;60.95;98780.22;6230686;28;20393;-77
2022/09/28 09:18:36;;;;;;;0.10;0.10;;;;;;;17.22;58.98;98777.03;6247432;28;20041;-77
2022/09/28 09:21:41;;;;;;;1.55;0.35;;;;;;;16.97;54.53;98765.72;6229520;28;20061;-74
2022/09/28 09:24:47;;;;;;;0.30;0.20;;;;;;;16.98;60.38;98767.34;6263026;28;20062;-74
2022/09/28 09:28:01;;;;;;;0.10;0.10;;;;;;;17.24;54.32;98754.78;6230114;28;20049;-74
2022/09/28 09:31:30;;;;;;;0.20;0.20;;;;;;;17.08;56.56;98760.91;6243177;28;20131;-74
2022/09/28 09:34:49;;;;;;;0.65;0.30;;;;;;;17.52;60.23;98757.88;6254411;28;20047;-74
2022/09/28 09:38:18;;;;;;;0.20;0.17;;;;;;;17.62;54.52;98762.09;6254510;28;20048;-74
2022/09/28 09:41:49;;;;;;;0.70;0.20;;;;;;;17.51;57.30;98771.22;6272284;28;20385;-74
2022/09/28 09:45:17;;;;;;;0.15;0.15;;;;;;;17.80;54.69;98772.44;6254299;28;20382;-75
2022/09/28 09:48:30;;;;;;;0.10;0.10;;;;;;;17.96;57.65;98766.31;6270280;28;20469;-75
2022/09/28 09:51:47;;;;;;;0.25;0.20;;;;;;;17.79;60.50;98765.50;6225932;28;20425;-74
2022/09/28 09:55:25;;;;;;;0.10;0.10;;;;;;;17.85;56.47;98756.94;6262838;28;20041;-74
2022/09/28 09:58:35;;;;;;;0.38;0.28;;;;;;;18.18;57.85;98762.88;6226141;28;20089;-75
2022/09/28 10:01:38;;;;;;;2.30;0.20;;;;;;;18.19;58.52;98768.97;6270232;28;20040;-74
2022/09/28 10:04:45;;;;;;;0.20;0.10;;;;;;;18.30;55.37;98765.94;6254258;28;20037;-75
2022/09/28 10:08:14;;;;;;;0.22;0.22;;;;;;;18.28;55.63;98775.84;6257026;28;20092;-74
2022/09/28 10:11:25;;;;;;;0.20;0.20;;;;;;;18.21;53.56;98765.16;6223528;28;20461;-75
2022/09/28 10:14:27;;;;;;;0.10;0.10;;;;;;;18.48;53.23;98765.66;6213038;28;20053;-74
2022/09/28 10:17:35;;;;;;;0.85;0.20;;;;;;;18.44;54.92;98767.00;6247035;28;20050;-74
2022/09/28 10:20:38;;;;;;;0.10;0.10;;;;;;;18.12;55.33;98760.94;6232010;28;20053;-75
2022/09/28 10:23:40;;;;;;;0.57;0.22;;;;;;;18.73;53.90;98766.28;6254041;28;20045;-74
2022/09/28 10:26:47;;;;;;;0.10;0.10;;;;;;;18.80;51.57;98755.84;6271839;28;20047;-74
2022/09/28 10:29:56;;;;;;;0.20;0.20;;;;;;;18.85;53.02;98767.53;6237235;28;20060;-74
2022/09/28 10:33:01;;;;;;;0.10;0.10;;;;;;;19.01;51.72;98763.94;6254352;28;20041;-74
2022/09/28 10:36:06;;;;;;;0.20;0.20;;;;;;;19.13;51.52;98775.72;6253812;28;20041;-74
2022/09/28 10:39:24;;;;;;;0.10;0.10;;;;;;;19.05;49.20;98770.50;6271465;28;20045;-73
2022/09/28 10:56:00;;;;;;;0.75;0.22;;;;;;;19.00;49.53;98751.72;6348193;27;20376;-76
2022/09/28 10:59:01;;;;;;;0.28;0.28;;;;;;;19.16;50.29;98763.16;6300800;28;20134;-73
2022/09/28 11:02:11;;;;;;;0.10;0.10;;;;;;;19.40;45.19;98760.25;6320100;28;20047;-74
2022/09/28 11:05:26;;;;;;;0.13;0.13;;;;;;;19.55;45.99;98754.16;6317349;28;20140;-74
2022/09/28 11:08:35;;;;;;;0.28;0.10;;;;;;;19.55;47.50;98754.16;6318994;28;20040;-75
2022/09/28 11:11:40;;;;;;;0.03;0.03;;;;;;;19.40;46.71;98762.09;6321551;28;20123;-74
2022/09/28 11:14:43;;;;;;;0.25;0.20;;;;;;;19.32;46.78;98752.41;6334646;28;20131;-75
2022/09/28 11:17:44;;;;;;;0.10;0.10;;;;;;;19.35;44.29;98751.22;6343695;28;20079;-75
2022/09/28 11:20:45;;;;;;;0.37;0.20;;;;;;;19.58;47.52;98762.53;6343744;28;20043;-73
2022/09/28 11:24:05;;;;;;;0.40;0.20;;;;;;;19.22;45.69;98767.72;6320735;28;20036;-73
2022/09/28 11:27:19;;;;;;;0.10;0.10;;;;;;;19.69;47.98;98763.91;6321562;28;20051;-73
2022/09/28 11:30:25;;;;;;;0.30;0.10;;;;;;;19.04;44.32;98753.00;6321937;28;20106;-73
2022/09/28 11:33:26;;;;;;;0.85;0.28;;;;;;;19.59;44.79;98760.72;6314288;28;20601;-73
2022/09/28 11:36:35;;;;;;;0.10;0.10;;;;;;;19.57;46.31;98773.31;6325285;28;20136;-73
2022/09/28 11:39:44;;;;;;;0.20;0.17;;;;;;;19.66;45.83;98770.38;6316322;28;20086;-74
2022/09/28 11:42:48;;;;;;;0.35;0.20;;;;;;;19.50;45.23;98776.69;6317081;28;20402;-74
2022/09/28 11:46:05;;;;;;;0.20;0.13;;;;;;;19.54;47.16;98771.84;6316094;28;20044;-74
2022/09/28 11:49:18;;;;;;;0.20;0.10;;;;;;;19.59;45.73;98774.75;6320015;28;20515;-75
2022/09/28 11:52:26;;;;;;;0.10;0.10;;;;;;;19.69;46.10;98777.94;6318060;28;20055;-75
2022/09/28 11:55:35;;;;;;;0.15;0.15;;;;;;;19.71;45.65;98773.31;6306930;28;20083;-75
2022/09/28 11:58:43;;;;;;;0.10;0.10;;;;;;;19.89;48.28;98772.94;6300111;28;20040;-75
2022/09/28 12:01:48;;;;;;;0.10;0.10;;;;;;;19.91;48.21;98773.59;6300371;28;20055;-75
2022/09/28 12:05:11;;;;;;;1.63;0.30;;;;;;;19.68;47.71;98767.53;6299001;28;20044;-74
2022/09/28 12:08:17;;;;;;;0.40;0.20;;;;;;;19.24;51.65;98773.66;6298856;28;20087;-75
2022/09/28 12:11:31;;;;;;;0.10;0.10;;;;;;;19.15;49.22;98772.91;6298415;28;20470;-74
2022/09/28 12:14:37;;;;;;;0.30;0.28;;;;;;;19.14;49.05;98781.81;6298640;28;20455;-73
2022/09/28 12:17:47;;;;;;;0.20;0.08;;;;;;;19.53;48.38;98778.13;6301544;28;20047;-74
2022/09/28 12:20:56;;;;;;;0.17;0.13;;;;;;;19.63;48.76;98778.69;6316435;28;20047;-76
2022/09/28 12:32:45;;;;;;;0.20;0.20;;;;;;;19.00;48.44;98762.28;6304598;28;20036;-75
2022/09/28 12:36:42;;;;;;;0.22;0.20;;;;;;;18.90;49.71;98767.84;6316453;28;20036;-75
2022/09/28 12:40:01;;;;;;;0.28;0.25;;;;;;;18.91;49.03;98764.19;6206802;28;20050;-73
2022/09/28 12:43:02;;;;;;;0.30;0.30;;;;;;;18.65;50.54;98761.06;6235488;28;20056;-74
2022/09/28 12:46:22;;;;;;;2.67;0.38;;;;;;;18.84;50.78;98760.63;6294440;28;20565;-74
2022/09/28 12:49:33;;;;;;;0.20;0.20;;;;;;;18.57;53.06;98759.31;6301491;28;20048;-74
2022/09/28 12:52:53;;;;;;;0.68;0.30;;;;;;;18.35;53.04;98774.16;6324120;28;20032;-74
2022/09/28 12:55:59;;;;;;;0.73;0.40;;;;;;;18.86;54.04;98760.44;6310505;28;20049;-73
2022/09/28 12:59:27;;;;;;;0.30;0.30;;;;;;;19.26;51.74;98758.41;6326639;27;20135;-73
2022/09/28 13:02:52;;;;;;;0.20;0.17;;;;;;;19.35;53.13;98759.16;6309979;28;20045;-73
2022/09/28 13:06:07;;;;;;;0.85;0.47;;;;;;;18.98;52.79;98751.06;6306883;28;20043;-74
2022/09/28 13:09:19;;;;;;;2.42;0.43;;;;;;;18.93;52.13;98759.53;6309527;28;20052;-75
2022/09/28 13:12:24;;;;;;;3.65;0.22;;;;;;;19.11;53.75;98751.28;6297326;28;20040;-75
2022/09/28 13:15:33;;;;;;;0.25;0.25;;;;;;;19.22;55.00;98755.31;6290070;28;20079;-75
2022/09/28 13:18:47;;;;;;;0.70;0.32;;;;;;;19.22;50.99;98755.31;6290304;28;20060;-75
2022/09/28 13:22:10;;;;;;;0.65;0.30;;;;;;;19.12;53.38;98755.56;6305478;28;20492;-76
2022/09/28 13:25:17;;;;;;;0.77;0.40;;;;;;;19.13;50.96;98745.84;6319162;28;20553;-75
2022/09/28 13:28:21;;;;;;;1.10;0.40;;;;;;;18.98;50.38;98744.97;6321957;28;20048;-73
2022/09/28 13:31:34;;;;;;;0.10;0.10;;;;;;;19.02;49.84;98741.78;6323353;28;20483;-75
2022/09/28 13:34:36;;;;;;;0.20;0.20;;;;;;;18.91;51.58;98732.47;6322296;28;20043;-75
2022/09/28 13:37:37;;;;;;;0.22;0.22;;;;;;;18.70;51.36;98740.25;6298778;28;20139;-75
2022/09/28 13:41:04;;;;;;;3.55;0.20;;;;;;;18.75;52.10;98745.78;6297938;28;20040;-75
2022/09/28 13:44:11;;;;;;;0.20;0.10;;;;;;;18.94;50.70;98736.56;6296255;28;20480;-74
2022/09/28 13:47:30;;;;;;;0.10;0.10;;;;;;;18.91;54.31;98740.41;6296314;28;20040;-73
2022/09/28 13:50:46;;;;;;;0.20;0.20;;;;;;;18.71;54.04;98733.94;6297436;28;20098;-74
2022/09/28 13:54:14;;;;;;;0.63;0.10;;;;;;;18.30;54.73;98732.44;6304144;28;20112;-74
2022/09/28 13:57:40;;;;;;;0.17;0.17;;;;;;;18.60;56.39;98731.72;6322662;28;20047;-75
2022/09/28 14:00:52;;;;;;;0.60;0.20;;;;;;;18.58;54.19;98723.16;6304613;28;20151;-75
2022/09/28 14:04:14;;;;;;;0.65;0.60;;;;;;;18.48;54.52;98723.41;6321664;28;20078;-75
2022/09/28 14:07:35;;;;;;;0.80;0.20;;;;;;;18.17;53.47;98720.81;6322545;28;20484;-75
2022/09/28 14:10:52;;;;;;;0.28;0.20;;;;;;;18.23;53.20;98726.22;6312399;22;20111;-79
2022/09/28 14:14:06;;;;;;;1.55;0.22;;;;;;;18.13;53.62;98731.72;6253832;28;20041;-79
2022/09/28 14:42:15;;;;;;;3.60;1.70;;;;;;;17.73;58.53;98707.16;6288964;28;20045;-74
2022/09/28 14:45:17;;;;;;;8.10;3.20;;;;;;;17.67;58.13;98699.94;6271319;28;20075;-74
2022/09/28 14:48:20;;;;;;;5.90;2.78;;;;;;;17.67;56.13;98691.22;6254676;28;20521;-74
2022/09/28 14:51:24;;;;;;;0.70;0.70;;;;;;;17.61;56.47;98691.91;6271032;28;20484;-75
2022/09/28 14:54:39;;;;;;;2.17;1.27;;;;;;;17.53;59.87;98690.94;6271180;28;20044;-75
2022/09/28 14:57:41;;;;;;;0.60;0.57;;;;;;;17.40;60.31;98690.66;6288914;28;20404;-75
2022/09/28 15:00:43;;;;;;;0.73;0.70;;;;;;;17.24;59.40;98685.44;6285140;28;20468;-75
2022/09/28 15:03:47;;;;;;;0.73;0.50;;;;;;;17.18;61.27;98686.13;6261839;28;20089;-75
2022/09/28 15:06:51;;;;;;;0.60;0.52;;;;;;;17.15;62.97;98681.19;6276607;28;20123;-75
2022/09/28 15:09:56;;;;;;;3.63;0.57;;;;;;;17.17;63.32;98680.00;6289001;28;20376;-75
2022/09/28 15:28:24;;;;;;;0.88;0.50;;;;;;;16.69;68.13;98672.00;6359344;27;20387;-75
2022/09/28 15:31:29;;;;;;;1.83;0.63;;;;;;;16.73;65.65;98673.31;6334443;28;20103;-75
2022/09/28 15:34:50;;;;;;;0.35;0.35;;;;;;;16.85;66.09;98681.75;6343477;28;20399;-75
2022/09/28 15:37:53;;;;;;;0.38;0.35;;;;;;;16.77;67.03;98679.09;6342350;28;20043;-75
2022/09/28 15:40:54;;;;;;;0.98;0.75;;;;;;;16.60;68.16;98686.19;6322236;28;20050;-74